createdAt,value
2022-08-19T00:01:52.690Z,24.25
2022-08-19T00:04:23.404Z,25.33
2022-08-19T00:06:50.999Z,24.20
2022-08-19T00:09:20.644Z,24.92
2022-08-19T00:11:48.810Z,28.23
2022-08-19T00:14:18.000Z,23.60
2022-08-19T00:16:48.356Z,23.88
2022-08-19T00:19:16.522Z,30.60
2022-08-19T00:21:44.338Z,23.65
2022-08-19T00:24:13.659Z,24.15
2022-08-19T00:26:42.431Z,28.35
2022-08-19T00:29:11.653Z,29.00
2022-08-19T00:31:39.061Z,21.30
2022-08-19T00:34:06.654Z,26.02
2022-08-19T00:36:34.234Z,23.90
2022-08-19T00:39:01.744Z,23.33
2022-08-19T00:41:29.766Z,24.92
2022-08-19T00:44:05.342Z,26.17
2022-08-19T00:46:34.413Z,26.25
2022-08-19T00:49:04.257Z,25.10
2022-08-19T00:51:33.462Z,25.52
2022-08-19T00:54:02.273Z,22.70
2022-08-19T00:56:30.083Z,21.20
2022-08-19T00:58:59.663Z,28.92
2022-08-19T01:01:27.382Z,27.38
2022-08-19T01:03:58.058Z,26.73
2022-08-19T01:06:27.194Z,27.73
2022-08-19T01:08:56.189Z,27.73
2022-08-19T01:11:23.578Z,26.05
2022-08-19T01:13:51.683Z,27.55
2022-08-19T01:16:21.878Z,23.75
2022-08-19T01:18:50.094Z,21.92
2022-08-19T01:21:36.400Z,25.80
2022-08-19T01:24:04.611Z,26.27
2022-08-19T01:26:32.051Z,26.92
2022-08-19T01:29:02.123Z,26.77
2022-08-19T01:31:33.230Z,28.35
2022-08-19T01:34:02.012Z,28.17
2022-08-19T01:36:43.230Z,27.33
2022-08-19T01:39:13.428Z,27.08
2022-08-19T01:41:40.974Z,28.88
2022-08-19T01:44:17.703Z,26.17
2022-08-19T01:46:48.818Z,27.58
2022-08-19T01:49:18.719Z,25.25
2022-08-19T01:51:46.880Z,27.48
2022-08-19T01:54:23.458Z,25.45
2022-08-19T01:57:05.278Z,27.95
2022-08-19T01:59:33.519Z,24.20
2022-08-19T02:02:01.279Z,29.90
2022-08-19T02:04:28.649Z,26.58
2022-08-19T02:06:56.158Z,26.75
2022-08-19T02:09:23.397Z,25.58
2022-08-19T02:11:50.633Z,30.80
2022-08-19T02:14:18.289Z,28.17
2022-08-19T02:16:45.449Z,24.80
2022-08-19T02:19:12.779Z,30.88
2022-08-19T02:21:40.196Z,26.23
2022-08-19T02:24:07.693Z,25.52
2022-08-19T02:26:35.166Z,24.13
2022-08-19T02:29:02.599Z,24.15
2022-08-19T02:31:29.932Z,26.38
2022-08-19T02:33:57.471Z,29.42
2022-08-19T02:36:26.288Z,25.42
2022-08-19T02:38:55.514Z,30.02
2022-08-19T02:41:27.936Z,29.40
2022-08-19T02:44:30.053Z,24.15
2022-08-19T02:46:46.978Z,26.30
2022-08-19T02:49:17.245Z,29.85
2022-08-19T02:51:46.615Z,23.90
2022-08-19T02:54:15.041Z,26.88
2022-08-19T02:56:44.233Z,28.17
2022-08-19T02:59:13.078Z,29.25
2022-08-19T03:01:43.158Z,25.23
2022-08-19T03:04:13.053Z,28.75
2022-08-19T03:06:42.578Z,25.80
2022-08-19T03:09:10.208Z,27.83
2022-08-19T03:11:38.688Z,29.77
2022-08-19T03:14:07.159Z,25.65
2022-08-19T03:16:36.619Z,26.05
2022-08-19T03:19:04.139Z,26.88
2022-08-19T03:21:33.323Z,26.88
2022-08-19T03:24:07.028Z,24.88
2022-08-19T03:26:35.196Z,26.58
2022-08-19T03:29:04.865Z,27.58
2022-08-19T03:31:43.975Z,24.67
2022-08-19T03:34:15.943Z,25.38
2022-08-19T03:36:43.382Z,28.00
2022-08-19T03:39:11.776Z,27.58
2022-08-19T03:41:45.422Z,29.77
2022-08-19T03:44:17.055Z,27.30
2022-08-19T03:46:48.671Z,27.55
2022-08-19T03:49:18.281Z,22.65
2022-08-19T03:51:47.224Z,32.05
2022-08-19T03:54:16.767Z,27.88
2022-08-19T03:56:45.738Z,30.00
2022-08-19T03:59:15.979Z,27.58
2022-08-19T04:01:44.533Z,25.00
2022-08-19T04:04:11.744Z,26.70
2022-08-19T04:06:40.208Z,29.45
2022-08-19T04:09:10.420Z,27.23
2022-08-19T04:11:45.012Z,24.80
2022-08-19T04:14:15.070Z,27.80
2022-08-19T04:16:45.404Z,28.33
2022-08-19T04:19:13.693Z,26.02
2022-08-19T04:21:41.442Z,25.70
2022-08-19T04:24:10.732Z,32.40
2022-08-19T04:26:38.613Z,24.73
2022-08-19T04:29:12.527Z,23.50
2022-08-19T04:31:42.135Z,30.27
2022-08-19T04:34:11.963Z,23.15
2022-08-19T04:36:42.172Z,28.40
2022-08-19T04:39:17.515Z,25.42
2022-08-19T04:42:04.670Z,27.02
2022-08-19T04:44:35.551Z,31.45
2022-08-19T04:47:11.129Z,23.20
2022-08-19T04:49:38.727Z,22.08
2022-08-19T04:52:06.427Z,21.52
2022-08-19T04:54:37.844Z,28.30
2022-08-19T04:57:09.703Z,23.48
2022-08-19T04:59:38.934Z,25.10
2022-08-19T05:02:08.564Z,25.75
2022-08-19T05:04:39.110Z,22.88
2022-08-19T05:07:08.714Z,24.65
2022-08-19T05:09:57.779Z,27.02
2022-08-19T05:12:28.779Z,24.02
2022-08-19T05:14:58.500Z,24.15
2022-08-19T05:17:29.060Z,27.08
2022-08-19T05:20:16.924Z,25.77
2022-08-19T05:22:47.676Z,24.40
2022-08-19T05:25:20.187Z,20.30
2022-08-19T05:27:48.519Z,29.00
2022-08-19T05:30:16.778Z,24.08
2022-08-19T05:32:44.736Z,17.83
2022-08-19T05:35:12.854Z,24.48
2022-08-19T05:37:41.558Z,29.30
2022-08-19T05:40:10.497Z,22.30
2022-08-19T05:42:38.561Z,28.45
2022-08-19T05:45:06.930Z,22.42
2022-08-19T05:47:34.318Z,25.70
2022-08-19T05:50:02.965Z,20.25
2022-08-19T05:52:33.510Z,21.50
2022-08-19T05:55:01.103Z,16.90
2022-08-19T05:57:30.165Z,22.92
2022-08-19T05:59:59.156Z,34.10
2022-08-19T06:02:27.816Z,28.08
2022-08-19T06:04:55.459Z,28.65
2022-08-19T06:07:23.139Z,20.17
2022-08-19T06:09:59.750Z,24.80
2022-08-19T06:12:35.124Z,19.77
2022-08-19T06:15:08.814Z,21.58
2022-08-19T06:17:36.397Z,21.42
2022-08-19T06:20:10.109Z,22.92
2022-08-19T06:22:42.533Z,21.23
2022-08-19T06:25:13.179Z,19.70
2022-08-19T06:27:58.643Z,19.55
2022-08-19T06:30:28.785Z,19.02
2022-08-19T06:32:56.240Z,23.00
2022-08-19T06:35:23.515Z,24.83
2022-08-19T06:37:50.702Z,18.13
2022-08-19T06:40:18.257Z,17.20
2022-08-19T06:42:53.001Z,17.13
2022-08-19T06:45:24.919Z,13.77
2022-08-19T06:48:02.127Z,18.75
2022-08-19T06:50:30.661Z,16.30
2022-08-19T06:52:57.885Z,18.20
2022-08-19T06:55:25.382Z,18.13
2022-08-19T06:57:54.481Z,16.05
2022-08-19T07:00:22.123Z,22.58
2022-08-19T07:02:53.401Z,18.80
2022-08-19T07:05:26.523Z,21.20
2022-08-19T07:07:54.137Z,19.70
2022-08-19T07:10:26.312Z,19.08
2022-08-19T07:12:54.935Z,24.35
2022-08-19T07:15:22.490Z,21.55
2022-08-19T07:17:52.648Z,18.00
2022-08-19T07:20:20.874Z,14.80
2022-08-19T07:22:49.336Z,16.02
2022-08-19T07:25:19.007Z,14.45
2022-08-19T07:27:48.713Z,22.83
2022-08-19T07:30:23.358Z,13.48
2022-08-19T07:32:54.247Z,24.20
2022-08-19T07:35:21.542Z,12.15
2022-08-19T07:37:48.904Z,14.85
2022-08-19T07:40:16.737Z,14.50
2022-08-19T07:42:44.246Z,15.30
2022-08-19T07:45:11.548Z,20.27
2022-08-19T07:47:47.521Z,17.40
2022-08-19T07:50:19.600Z,18.88
2022-08-19T07:52:49.061Z,13.27
2022-08-19T07:55:41.626Z,13.73
2022-08-19T07:58:06.956Z,16.05
2022-08-19T08:00:34.194Z,10.27
2022-08-19T08:03:01.568Z,17.40
2022-08-19T08:05:47.600Z,22.88
2022-08-19T08:08:34.011Z,17.40
2022-08-19T08:11:01.591Z,20.40
2022-08-19T08:13:29.210Z,20.02
2022-08-19T08:15:57.701Z,21.38
2022-08-19T08:18:27.617Z,16.67
2022-08-19T08:20:56.540Z,21.15
2022-08-19T08:23:26.474Z,13.93
2022-08-19T08:25:57.704Z,15.57
2022-08-19T08:28:26.176Z,20.63
2022-08-19T08:30:58.134Z,13.00
2022-08-19T08:33:33.926Z,13.40
2022-08-19T08:36:06.097Z,12.15
2022-08-19T08:38:39.151Z,21.80
2022-08-19T08:41:20.540Z,21.05
2022-08-19T08:43:52.184Z,13.10
2022-08-19T08:46:30.971Z,16.75
2022-08-19T08:49:09.829Z,19.10
2022-08-19T08:52:06.084Z,14.43
2022-08-19T08:54:41.405Z,17.98
2022-08-19T08:57:48.503Z,16.90
2022-08-19T09:00:22.061Z,15.73
2022-08-19T09:02:50.794Z,24.15
2022-08-19T09:05:22.168Z,11.75
2022-08-19T09:08:04.607Z,15.32
2022-08-19T09:10:44.434Z,14.00
2022-08-19T09:13:46.692Z,20.58
2022-08-19T09:16:21.943Z,17.40
2022-08-19T09:19:07.852Z,16.27
2022-08-19T09:21:35.974Z,15.57
2022-08-19T09:24:05.512Z,22.77
2022-08-19T09:26:47.665Z,17.45
2022-08-19T09:29:22.588Z,13.20
2022-08-19T09:31:51.173Z,16.13
2022-08-19T09:34:22.194Z,15.45
2022-08-19T09:36:55.673Z,15.27
2022-08-19T09:39:23.655Z,14.88
2022-08-19T09:41:52.593Z,20.42
2022-08-19T09:44:21.939Z,17.80
2022-08-19T09:46:49.739Z,18.52
2022-08-19T09:49:19.137Z,22.67
2022-08-19T09:51:51.491Z,19.35
2022-08-19T09:54:23.767Z,30.30
2022-08-19T09:56:54.910Z,17.35
2022-08-19T09:59:22.808Z,16.30
2022-08-19T10:01:50.212Z,17.65
2022-08-19T10:04:20.295Z,12.77
2022-08-19T10:06:53.749Z,15.43
2022-08-19T10:09:26.262Z,16.10
2022-08-19T10:12:06.110Z,20.83
2022-08-19T10:14:34.378Z,17.15
2022-08-19T10:17:18.026Z,16.05
2022-08-19T10:19:53.429Z,14.35
2022-08-19T10:22:25.603Z,17.52
2022-08-19T10:24:54.219Z,17.92
2022-08-19T10:27:21.880Z,13.27
2022-08-19T10:29:49.307Z,17.77
2022-08-19T10:32:17.012Z,19.20
2022-08-19T10:34:48.354Z,16.50
2022-08-19T10:37:23.684Z,17.63
2022-08-19T10:39:51.784Z,12.73
2022-08-19T10:42:20.108Z,13.82
2022-08-19T10:44:51.979Z,14.70
2022-08-19T10:47:25.791Z,17.17
2022-08-19T10:50:13.979Z,15.73
2022-08-19T10:52:49.300Z,17.27
2022-08-19T10:55:42.393Z,17.10
2022-08-19T10:58:14.972Z,13.63
2022-08-19T11:00:44.389Z,18.15
2022-08-19T11:03:12.472Z,14.60
2022-08-19T11:05:39.911Z,17.60
2022-08-19T11:08:22.260Z,17.15
2022-08-19T11:13:19.140Z,15.82
2022-08-19T11:15:46.993Z,13.77
2022-08-19T11:18:15.262Z,15.73
2022-08-19T11:20:42.655Z,13.20
2022-08-19T11:23:12.550Z,16.20
2022-08-19T11:25:40.866Z,17.58
2022-08-19T11:28:08.458Z,13.15
2022-08-19T11:30:38.873Z,12.73
2022-08-19T11:33:06.429Z,7.82
2022-08-19T11:35:34.739Z,14.65
2022-08-19T11:38:02.438Z,13.50
2022-08-19T11:40:30.701Z,17.83
2022-08-19T11:42:58.140Z,12.65
2022-08-19T11:45:28.332Z,16.55
2022-08-19T11:47:56.718Z,15.50
2022-08-19T11:50:25.137Z,12.95
2022-08-19T11:52:56.333Z,14.10
2022-08-19T11:55:24.194Z,13.55
2022-08-19T11:57:51.662Z,12.52
2022-08-19T12:00:19.429Z,17.08
2022-08-19T12:02:47.349Z,14.45
2022-08-19T12:05:16.067Z,11.05
2022-08-19T12:07:44.726Z,17.33
2022-08-19T12:10:13.028Z,14.75
2022-08-19T12:12:43.798Z,13.65
2022-08-19T12:15:15.775Z,17.13
2022-08-19T12:17:43.752Z,10.30
2022-08-19T12:20:14.715Z,20.80
2022-08-19T12:22:43.183Z,14.80
2022-08-19T12:25:12.112Z,11.10
2022-08-19T12:27:41.670Z,18.88
2022-08-19T12:30:13.004Z,16.13
2022-08-19T12:32:41.101Z,15.57
2022-08-19T12:35:12.320Z,15.98
2022-08-19T12:37:43.471Z,11.75
2022-08-19T12:40:12.815Z,13.32
2022-08-19T12:42:44.443Z,14.88
2022-08-19T12:45:14.338Z,13.05
2022-08-19T12:47:42.529Z,17.90
2022-08-19T12:50:13.568Z,14.82
2022-08-19T12:52:43.387Z,12.52
2022-08-19T12:55:12.240Z,11.45
2022-08-19T12:57:40.001Z,10.50
2022-08-19T13:00:14.638Z,13.60
2022-08-19T13:02:46.171Z,11.57
2022-08-19T13:05:21.864Z,13.93
2022-08-19T13:07:51.052Z,16.75
2022-08-19T13:10:20.715Z,13.80
2022-08-19T13:12:50.098Z,18.90
2022-08-19T13:15:23.863Z,12.73
2022-08-19T13:17:53.815Z,10.23
2022-08-19T13:20:22.733Z,19.23
2022-08-19T13:22:50.412Z,19.45
2022-08-19T13:25:20.227Z,11.98
2022-08-19T13:27:49.074Z,16.42
2022-08-19T13:30:35.468Z,12.02
2022-08-19T13:33:11.947Z,13.30
2022-08-19T13:35:41.691Z,19.98
2022-08-19T13:38:11.859Z,12.80
2022-08-19T13:40:41.162Z,17.13
2022-08-19T13:43:13.513Z,14.75
2022-08-19T13:45:56.523Z,13.27
2022-08-19T13:48:24.803Z,12.60
2022-08-19T13:50:52.611Z,18.27
2022-08-19T13:53:20.118Z,19.48
2022-08-19T13:55:47.623Z,13.20
2022-08-19T13:58:15.696Z,17.55
2022-08-19T14:00:46.161Z,18.08
2022-08-19T14:03:13.614Z,7.05
2022-08-19T14:05:41.390Z,9.52
2022-08-19T14:08:10.416Z,11.85
2022-08-19T14:10:37.848Z,14.73
2022-08-19T14:13:06.193Z,18.05
2022-08-19T14:15:34.115Z,10.63
2022-08-19T14:18:01.826Z,15.65
2022-08-19T14:20:30.738Z,11.52
2022-08-19T14:22:58.229Z,11.57
2022-08-19T14:25:28.594Z,10.25
2022-08-19T14:27:57.033Z,15.27
2022-08-19T14:30:28.685Z,12.23
2022-08-19T14:33:00.166Z,13.98
2022-08-19T14:35:29.165Z,20.30
2022-08-19T14:37:57.048Z,23.67
2022-08-19T14:40:27.278Z,9.73
2022-08-19T14:43:01.982Z,14.27
2022-08-19T14:45:30.269Z,15.73
2022-08-19T14:47:57.842Z,9.40
2022-08-19T14:50:25.121Z,13.18
2022-08-19T14:53:00.091Z,12.93
2022-08-19T14:55:28.083Z,19.80
2022-08-19T14:57:55.741Z,13.38
2022-08-19T15:00:25.969Z,17.65
2022-08-19T15:02:55.592Z,17.08
2022-08-19T15:05:23.408Z,8.65
2022-08-19T15:07:51.053Z,13.15
2022-08-19T15:10:18.870Z,15.43
2022-08-19T15:12:51.107Z,14.60
2022-08-19T15:15:19.457Z,12.55
2022-08-19T15:17:47.636Z,12.55
2022-08-19T15:20:18.157Z,14.18
2022-08-19T15:22:46.244Z,11.70
2022-08-19T15:25:16.568Z,8.82
2022-08-19T15:27:44.431Z,19.45
2022-08-19T15:30:12.801Z,13.55
2022-08-19T15:32:40.650Z,14.02
2022-08-19T15:35:08.699Z,12.93
2022-08-19T15:37:37.360Z,10.57
2022-08-19T15:40:07.664Z,13.98
2022-08-19T15:42:37.597Z,7.15
2022-08-19T15:45:07.444Z,17.27
2022-08-19T15:47:35.768Z,9.98
2022-08-19T15:50:10.491Z,11.52
2022-08-19T15:53:05.654Z,11.85
2022-08-19T15:55:36.510Z,8.75
2022-08-19T15:58:29.839Z,12.50
2022-08-19T16:01:17.838Z,16.45
2022-08-19T16:04:13.733Z,16.90
2022-08-19T16:06:45.561Z,12.02
2022-08-19T16:09:13.491Z,11.35
2022-08-19T16:11:45.489Z,9.38
2022-08-19T16:14:15.470Z,10.13
2022-08-19T16:16:47.287Z,10.40
2022-08-19T16:19:20.142Z,10.02
2022-08-19T16:24:19.422Z,10.63
2022-08-19T16:26:48.372Z,9.95
2022-08-19T16:29:22.088Z,9.95
2022-08-19T16:32:07.733Z,12.43
2022-08-19T16:34:35.138Z,12.88
2022-08-19T16:37:02.984Z,15.07
2022-08-19T16:39:30.492Z,9.02
2022-08-19T16:41:58.230Z,8.15
2022-08-19T16:44:29.439Z,12.60
2022-08-19T16:46:59.808Z,10.75
2022-08-19T16:49:54.504Z,12.32
2022-08-19T16:52:17.745Z,9.77
2022-08-19T16:54:45.373Z,10.35
2022-08-19T16:57:13.768Z,9.57
2022-08-19T16:59:42.606Z,17.00
2022-08-19T17:02:18.725Z,13.05
2022-08-19T17:04:58.363Z,8.43
2022-08-19T17:07:28.729Z,10.07
2022-08-19T17:09:57.215Z,10.57
2022-08-19T17:12:30.499Z,12.20
2022-08-19T17:15:01.646Z,8.65
2022-08-19T17:17:30.332Z,7.25
2022-08-19T17:20:02.680Z,10.02
2022-08-19T17:22:30.551Z,19.63
2022-08-19T17:24:58.639Z,6.65
2022-08-19T17:27:32.150Z,8.32
2022-08-19T17:30:02.845Z,8.55
2022-08-19T17:32:33.259Z,13.43
2022-08-19T17:35:01.039Z,14.73
2022-08-19T17:37:28.365Z,9.30
2022-08-19T17:39:55.718Z,14.82
2022-08-19T17:42:23.380Z,11.45
2022-08-19T17:44:51.105Z,11.95
2022-08-19T17:47:19.657Z,20.73
2022-08-19T17:49:47.391Z,11.60
2022-08-19T17:52:14.824Z,10.27
2022-08-19T17:54:42.345Z,12.52
2022-08-19T17:57:10.237Z,13.55
2022-08-19T17:59:37.770Z,13.80
2022-08-19T18:02:10.081Z,15.63
2022-08-19T18:04:38.576Z,15.88
2022-08-19T18:07:06.682Z,18.02
2022-08-19T18:09:41.431Z,18.10
2022-08-19T18:12:12.600Z,14.55
2022-08-19T18:14:40.714Z,13.40
2022-08-19T18:17:10.620Z,13.55
2022-08-19T18:19:41.557Z,15.95
2022-08-19T18:22:28.461Z,13.07
2022-08-19T18:24:57.851Z,15.23
2022-08-19T18:27:27.235Z,13.00
2022-08-19T18:29:59.768Z,15.13
2022-08-19T18:32:38.271Z,13.15
2022-08-19T18:35:15.985Z,12.85
2022-08-19T18:37:44.904Z,15.50
2022-08-19T18:40:38.473Z,16.73
2022-08-19T18:43:12.333Z,16.95
2022-08-19T18:46:00.437Z,13.98
2022-08-19T18:48:46.940Z,12.35
2022-08-19T18:51:16.401Z,14.75
2022-08-19T18:53:45.451Z,12.73
2022-08-19T18:56:14.391Z,13.85
2022-08-19T18:58:42.840Z,15.73
2022-08-19T19:01:17.679Z,20.48
2022-08-19T19:03:49.110Z,12.40
2022-08-19T19:06:20.313Z,10.57
2022-08-19T19:08:48.965Z,13.52
2022-08-19T19:11:34.342Z,14.50
2022-08-19T19:14:04.713Z,15.63
2022-08-19T19:16:32.901Z,15.93
2022-08-19T19:19:00.453Z,15.10
2022-08-19T19:21:30.845Z,14.18
2022-08-19T19:24:01.643Z,10.07
2022-08-19T19:26:29.414Z,8.55
2022-08-19T19:28:57.552Z,9.95
2022-08-19T19:31:26.994Z,15.52
2022-08-19T19:33:55.845Z,15.98
2022-08-19T19:36:23.985Z,10.35
2022-08-19T19:38:51.785Z,15.93
2022-08-19T19:41:24.649Z,11.77
2022-08-19T19:44:10.055Z,12.02
2022-08-19T19:46:45.278Z,13.15
2022-08-19T19:49:13.535Z,9.77
2022-08-19T19:51:41.563Z,16.08
2022-08-19T19:54:14.988Z,14.88
2022-08-19T19:56:48.638Z,10.10
2022-08-19T19:59:17.427Z,9.05
2022-08-19T20:01:47.105Z,12.35
2022-08-19T20:04:16.029Z,16.75
2022-08-19T20:06:45.269Z,10.98
2022-08-19T20:09:19.531Z,10.73
2022-08-19T20:11:47.490Z,11.30
2022-08-19T20:14:24.356Z,14.27
2022-08-19T20:16:53.609Z,15.18
2022-08-19T20:19:23.153Z,14.35
2022-08-19T20:21:51.560Z,14.07
2022-08-19T20:24:24.074Z,12.10
2022-08-19T20:26:53.597Z,10.50
2022-08-19T20:29:37.980Z,11.85
2022-08-19T20:32:07.135Z,17.40
2022-08-19T20:34:34.832Z,13.95
2022-08-19T20:37:02.915Z,14.18
2022-08-19T20:39:30.445Z,12.65
2022-08-19T20:41:58.360Z,12.02
2022-08-19T20:44:25.942Z,11.40
2022-08-19T20:46:56.760Z,17.25
2022-08-19T20:51:56.142Z,12.93
2022-08-19T20:54:24.350Z,11.15
2022-08-19T20:56:53.162Z,12.05
2022-08-19T20:59:21.151Z,15.98
2022-08-19T21:01:49.161Z,11.45
2022-08-19T21:04:16.705Z,17.98
2022-08-19T21:06:45.498Z,12.35
2022-08-19T21:09:13.932Z,10.52
2022-08-19T21:11:41.592Z,14.60
2022-08-19T21:14:08.926Z,12.10
2022-08-19T21:16:36.611Z,12.13
2022-08-19T21:19:05.074Z,11.98
2022-08-19T21:21:33.440Z,12.85
2022-08-19T21:24:01.813Z,16.52
2022-08-19T21:26:29.384Z,13.05
2022-08-19T21:28:56.751Z,12.38
2022-08-19T21:31:24.221Z,12.45
2022-08-19T21:33:51.886Z,16.67
2022-08-19T21:36:19.289Z,11.10
2022-08-19T21:38:46.763Z,12.05
2022-08-19T21:41:14.651Z,10.13
2022-08-19T21:43:42.211Z,13.52
2022-08-19T21:46:09.683Z,15.15
2022-08-19T21:48:37.347Z,11.43
2022-08-19T21:51:05.186Z,10.50
2022-08-19T21:53:34.129Z,13.00
2022-08-19T21:56:03.830Z,8.50
2022-08-19T21:58:31.260Z,13.57
2022-08-19T22:01:00.004Z,11.68
2022-08-19T22:03:28.254Z,15.57
2022-08-19T22:05:55.774Z,11.75
2022-08-19T22:08:23.388Z,13.98
2022-08-19T22:10:51.314Z,12.82
2022-08-19T22:13:20.557Z,13.43
2022-08-19T22:15:48.929Z,14.20
2022-08-19T22:18:17.839Z,11.90
2022-08-19T22:20:45.490Z,17.13
2022-08-19T22:23:12.882Z,11.93
2022-08-19T22:25:45.602Z,21.05
2022-08-19T22:28:14.901Z,12.77
2022-08-19T22:30:51.273Z,14.63
2022-08-19T22:33:19.653Z,16.50
2022-08-19T22:35:47.733Z,13.88
2022-08-19T22:38:15.794Z,13.95
2022-08-19T22:40:47.230Z,18.10
2022-08-19T22:43:26.268Z,13.63
2022-08-19T22:45:55.139Z,16.95
2022-08-19T22:48:27.013Z,12.77
2022-08-19T22:51:13.740Z,14.63
2022-08-19T22:53:45.203Z,12.18
2022-08-19T22:56:15.453Z,22.45
2022-08-19T22:58:43.817Z,14.27
2022-08-19T23:01:24.911Z,18.00
2022-08-19T23:03:56.584Z,18.40
2022-08-19T23:06:26.963Z,14.65
2022-08-19T23:09:05.242Z,13.80
2022-08-19T23:11:38.042Z,12.85
2022-08-19T23:14:07.468Z,17.52
2022-08-19T23:16:36.306Z,11.38
2022-08-19T23:19:03.877Z,18.52
2022-08-19T23:21:31.610Z,11.68
2022-08-19T23:23:59.159Z,17.23
2022-08-19T23:26:26.420Z,8.88
2022-08-19T23:29:12.418Z,12.80
2022-08-19T23:31:39.965Z,19.52
2022-08-19T23:34:07.426Z,17.83
2022-08-19T23:36:34.849Z,15.13
2022-08-19T23:39:02.090Z,11.27
2022-08-19T23:41:29.721Z,15.40
2022-08-19T23:43:57.638Z,13.38
2022-08-19T23:46:28.670Z,14.25
2022-08-19T23:48:58.063Z,13.73
2022-08-19T23:51:26.472Z,16.65
2022-08-19T23:53:53.903Z,11.50
2022-08-19T23:56:21.939Z,16.77
2022-08-19T23:58:49.324Z,13.73
